Main page
METAR-TAF:

METAR-TAF

Airports :

Chandigarh International Airport

Chandigarh, India

latitude: 30-40-29N, longitude: 76-47-26E, elevation: 314 m

METAR: missing

Time: 22:15 (16:45 UTC)

Forecast

The report was made 7 hours and 15 minutes ago, at 09:30 UTC
Forecast valid from 04 at 12 UTC to 04 at 24 UTC
Wind 10 kt from the North/Northwest
Visibility: 6000 m
Few clouds at a height of 3000 ft
Becoming
from 04 at 16 UTC to 04 at 19 UTC
Wind 10 kt from the North/Northeast
Visibility: 6000 m
Few clouds at a height of 3000 ft
Becoming
from 04 at 23 UTC to 04 at 24 UTC
Wind 8 kt from the North/Northeast
Visibility: 6000 m
Scattered clouds at a height of 25000 ft

TAF: VICG 040930Z 0412/0424 33010KT 6000 FEW030 BECMG 0416/0419 02010KT 6000 FEW030 BECMG 0423/0424 02008KT 6000 SCT250

Weather observations and forecasts of more than 4000 airports (METAR and TAF reports).

The available stations are represented by yellow and red dots on the map.

Hover mouse over dot to see the name of the station.

Then click to see weather observations and forecasts.

To change the map : click on the green buttons with a black cross to zoom in, on the green button with a dash to zoom out, or on the green arrows for adjacent maps.


METAR-TAF: